sensor_id;sensor_type;location;lat;lon;timestamp;temperature;humidity
44277;DHT22;29973;43.742;1.236;2023-04-21T00:07:29;8.70;99.90
44277;DHT22;29973;43.742;1.236;2023-04-21T00:10:56;8.50;99.90
44277;DHT22;29973;43.742;1.236;2023-04-21T06:57:34;12.50;99.90
44277;DHT22;29973;43.742;1.236;2023-04-21T07:00:19;12.70;99.90
44277;DHT22;29973;43.742;1.236;2023-04-21T07:05:30;12.80;99.90
44277;DHT22;29973;43.742;1.236;2023-04-21T07:07:56;13.10;99.90
44277;DHT22;29973;43.742;1.236;2023-04-21T07:10:27;13.20;99.90
44277;DHT22;29973;43.742;1.236;2023-04-21T07:12:54;13.20;99.90
44277;DHT22;29973;43.742;1.236;2023-04-21T07:15:20;13.40;99.90
44277;DHT22;29973;43.742;1.236;2023-04-21T07:17:46;13.30;99.90
44277;DHT22;29973;43.742;1.236;2023-04-21T07:20:12;13.50;99.90
44277;DHT22;29973;43.742;1.236;2023-04-21T07:22:37;13.50;99.90
44277;DHT22;29973;43.742;1.236;2023-04-21T07:25:04;13.80;99.90
44277;DHT22;29973;43.742;1.236;2023-04-21T07:27:33;13.90;99.90
44277;DHT22;29973;43.742;1.236;2023-04-21T07:30:04;14.00;99.90
44277;DHT22;29973;43.742;1.236;2023-04-21T07:32:30;14.10;99.90
44277;DHT22;29973;43.742;1.236;2023-04-21T07:34:56;14.10;99.90
44277;DHT22;29973;43.742;1.236;2023-04-21T07:37:23;14.20;99.90
44277;DHT22;29973;43.742;1.236;2023-04-21T07:39:48;14.30;99.90
44277;DHT22;29973;43.742;1.236;2023-04-21T07:42:14;14.50;99.90
44277;DHT22;29973;43.742;1.236;2023-04-21T07:44:40;14.50;99.90
44277;DHT22;29973;43.742;1.236;2023-04-21T07:47:06;14.60;99.90
44277;DHT22;29973;43.742;1.236;2023-04-21T07:49:31;14.70;99.90
44277;DHT22;29973;43.742;1.236;2023-04-21T07:51:57;15.00;99.90
44277;DHT22;29973;43.742;1.236;2023-04-21T07:54:23;14.90;99.90
44277;DHT22;29973;43.742;1.236;2023-04-21T07:56:48;14.90;99.90
44277;DHT22;29973;43.742;1.236;2023-04-21T07:59:14;14.90;99.90
44277;DHT22;29973;43.742;1.236;2023-04-21T08:01:40;14.90;99.90
44277;DHT22;29973;43.742;1.236;2023-04-21T08:04:05;15.20;99.90
44277;DHT22;29973;43.742;1.236;2023-04-21T08:06:31;15.20;99.90
44277;DHT22;29973;43.742;1.236;2023-04-21T08:08:58;15.20;99.90
44277;DHT22;29973;43.742;1.236;2023-04-21T08:11:23;15.60;99.90
44277;DHT22;29973;43.742;1.236;2023-04-21T08:13:49;15.40;99.90
44277;DHT22;29973;43.742;1.236;2023-04-21T08:16:15;15.70;99.90
44277;DHT22;29973;43.742;1.236;2023-04-21T08:18:41;15.90;99.90
44277;DHT22;29973;43.742;1.236;2023-04-21T08:21:07;16.00;99.90
44277;DHT22;29973;43.742;1.236;2023-04-21T08:23:33;15.80;99.90
44277;DHT22;29973;43.742;1.236;2023-04-21T08:25:59;16.10;99.90
44277;DHT22;29973;43.742;1.236;2023-04-21T08:28:25;16.30;99.90
44277;DHT22;29973;43.742;1.236;2023-04-21T08:30:51;16.60;99.90
44277;DHT22;29973;43.742;1.236;2023-04-21T08:33:16;16.50;99.90
44277;DHT22;29973;43.742;1.236;2023-04-21T08:35:42;16.70;99.90
44277;DHT22;29973;43.742;1.236;2023-04-21T08:38:08;17.00;99.90
44277;DHT22;29973;43.742;1.236;2023-04-21T08:40:35;16.90;99.90
44277;DHT22;29973;43.742;1.236;2023-04-21T08:43:06;17.10;99.90
44277;DHT22;29973;43.742;1.236;2023-04-21T08:45:33;17.20;99.90
44277;DHT22;29973;43.742;1.236;2023-04-21T08:48:00;17.50;99.90
44277;DHT22;29973;43.742;1.236;2023-04-21T08:50:28;17.30;99.90
44277;DHT22;29973;43.742;1.236;2023-04-21T08:52:54;17.20;99.90
44277;DHT22;29973;43.742;1.236;2023-04-21T08:55:25;17.20;99.90
44277;DHT22;29973;43.742;1.236;2023-04-21T08:57:51;17.40;99.90
44277;DHT22;29973;43.742;1.236;2023-04-21T09:00:17;17.50;99.90
44277;DHT22;29973;43.742;1.236;2023-04-21T09:02:57;17.30;99.90
44277;DHT22;29973;43.742;1.236;2023-04-21T09:05:25;17.40;99.90
44277;DHT22;29973;43.742;1.236;2023-04-21T09:08:08;17.60;99.90
44277;DHT22;29973;43.742;1.236;2023-04-21T09:10:48;18.00;99.90
44277;DHT22;29973;43.742;1.236;2023-04-21T09:13:14;17.90;99.90
44277;DHT22;29973;43.742;1.236;2023-04-21T09:15:41;18.10;99.90
44277;DHT22;29973;43.742;1.236;2023-04-21T09:18:19;18.30;99.90
44277;DHT22;29973;43.742;1.236;2023-04-21T09:20:47;18.20;99.90
44277;DHT22;29973;43.742;1.236;2023-04-21T09:23:13;18.20;99.90
44277;DHT22;29973;43.742;1.236;2023-04-21T09:25:40;18.20;99.90
44277;DHT22;29973;43.742;1.236;2023-04-21T09:28:11;18.50;99.90
44277;DHT22;29973;43.742;1.236;2023-04-21T09:30:39;18.50;99.90
44277;DHT22;29973;43.742;1.236;2023-04-21T09:33:05;18.50;99.90
44277;DHT22;29973;43.742;1.236;2023-04-21T09:35:35;19.10;99.90
44277;DHT22;29973;43.742;1.236;2023-04-21T09:38:03;18.90;99.90
44277;DHT22;29973;43.742;1.236;2023-04-21T09:40:29;19.00;99.90
44277;DHT22;29973;43.742;1.236;2023-04-21T09:42:55;19.40;99.90
44277;DHT22;29973;43.742;1.236;2023-04-21T09:45:26;19.60;99.90
44277;DHT22;29973;43.742;1.236;2023-04-21T09:47:54;19.40;99.90
44277;DHT22;29973;43.742;1.236;2023-04-21T09:50:22;19.70;99.90
44277;DHT22;29973;43.742;1.236;2023-04-21T09:52:50;19.70;99.90
44277;DHT22;29973;43.742;1.236;2023-04-21T09:55:17;20.10;99.90
44277;DHT22;29973;43.742;1.236;2023-04-21T09:57:45;19.60;99.90
44277;DHT22;29973;43.742;1.236;2023-04-21T10:00:13;19.70;99.90
44277;DHT22;29973;43.742;1.236;2023-04-21T10:02:44;19.90;99.90
44277;DHT22;29973;43.742;1.236;2023-04-21T10:05:12;20.20;99.90
44277;DHT22;29973;43.742;1.236;2023-04-21T10:07:41;20.40;99.90
44277;DHT22;29973;43.742;1.236;2023-04-21T10:10:27;20.40;99.90
44277;DHT22;29973;43.742;1.236;2023-04-21T10:12:54;20.30;99.90
44277;DHT22;29973;43.742;1.236;2023-04-21T10:15:34;20.70;99.90
44277;DHT22;29973;43.742;1.236;2023-04-21T10:18:16;20.50;99.90
44277;DHT22;29973;43.742;1.236;2023-04-21T10:21:00;20.70;99.90
44277;DHT22;29973;43.742;1.236;2023-04-21T10:25:52;20.50;99.90
44277;DHT22;29973;43.742;1.236;2023-04-21T10:28:18;20.40;99.90
44277;DHT22;29973;43.742;1.236;2023-04-21T10:30:44;20.40;99.90
44277;DHT22;29973;43.742;1.236;2023-04-21T10:33:09;20.90;99.90
44277;DHT22;29973;43.742;1.236;2023-04-21T10:38:42;21.00;99.90
44277;DHT22;29973;43.742;1.236;2023-04-21T10:41:28;21.80;99.90
44277;DHT22;29973;43.742;1.236;2023-04-21T10:44:11;22.00;99.90
44277;DHT22;29973;43.742;1.236;2023-04-21T10:46:45;21.50;99.90
44277;DHT22;29973;43.742;1.236;2023-04-21T10:49:22;22.00;99.90
44277;DHT22;29973;43.742;1.236;2023-04-21T10:57:09;21.20;99.90
44277;DHT22;29973;43.742;1.236;2023-04-21T10:59:36;22.30;99.90
44277;DHT22;29973;43.742;1.236;2023-04-21T11:02:12;22.70;99.90
44277;DHT22;29973;43.742;1.236;2023-04-21T11:04:39;23.40;99.90
44277;DHT22;29973;43.742;1.236;2023-04-21T11:07:17;24.70;99.90
44277;DHT22;29973;43.742;1.236;2023-04-21T11:09:44;25.20;99.90
44277;DHT22;29973;43.742;1.236;2023-04-21T11:12:12;25.10;99.90
44277;DHT22;29973;43.742;1.236;2023-04-21T11:14:40;26.60;99.90
44277;DHT22;29973;43.742;1.236;2023-04-21T11:17:32;26.60;99.90
44277;DHT22;29973;43.742;1.236;2023-04-21T11:19:58;25.80;99.90
44277;DHT22;29973;43.742;1.236;2023-04-21T11:22:25;25.50;99.90
44277;DHT22;29973;43.742;1.236;2023-04-21T11:24:55;25.10;99.90
44277;DHT22;29973;43.742;1.236;2023-04-21T11:27:22;25.50;99.90
44277;DHT22;29973;43.742;1.236;2023-04-21T11:29:49;25.80;98.70
44277;DHT22;29973;43.742;1.236;2023-04-21T11:32:15;26.80;97.80
44277;DHT22;29973;43.742;1.236;2023-04-21T11:34:41;25.20;97.80
44277;DHT22;29973;43.742;1.236;2023-04-21T11:37:13;25.50;98.50
44277;DHT22;29973;43.742;1.236;2023-04-21T11:39:42;26.70;97.20
44277;DHT22;29973;43.742;1.236;2023-04-21T11:42:09;26.00;96.60
44277;DHT22;29973;43.742;1.236;2023-04-21T11:44:41;26.10;95.20
44277;DHT22;29973;43.742;1.236;2023-04-21T11:47:18;28.00;92.90
44277;DHT22;29973;43.742;1.236;2023-04-21T11:49:52;26.40;93.90
44277;DHT22;29973;43.742;1.236;2023-04-21T11:52:30;27.50;92.40
44277;DHT22;29973;43.742;1.236;2023-04-21T11:55:11;26.70;92.80
44277;DHT22;29973;43.742;1.236;2023-04-21T11:57:39;27.30;92.80
44277;DHT22;29973;43.742;1.236;2023-04-21T12:00:08;26.30;91.80
44277;DHT22;29973;43.742;1.236;2023-04-21T12:02:40;26.80;93.80
44277;DHT22;29973;43.742;1.236;2023-04-21T12:05:07;28.00;90.30
44277;DHT22;29973;43.742;1.236;2023-04-21T12:07:39;26.90;88.40
44277;DHT22;29973;43.742;1.236;2023-04-21T12:10:10;26.20;87.00
44277;DHT22;29973;43.742;1.236;2023-04-21T12:12:40;26.70;90.30
44277;DHT22;29973;43.742;1.236;2023-04-21T12:15:07;27.70;90.40
44277;DHT22;29973;43.742;1.236;2023-04-21T12:17:47;28.10;86.00
44277;DHT22;29973;43.742;1.236;2023-04-21T12:20:18;26.80;83.20
44277;DHT22;29973;43.742;1.236;2023-04-21T12:22:44;27.30;87.90
44277;DHT22;29973;43.742;1.236;2023-04-21T12:25:10;27.00;84.90
44277;DHT22;29973;43.742;1.236;2023-04-21T12:27:36;26.90;89.90
44277;DHT22;29973;43.742;1.236;2023-04-21T12:30:01;27.60;79.70
44277;DHT22;29973;43.742;1.236;2023-04-21T12:32:28;26.90;85.30
44277;DHT22;29973;43.742;1.236;2023-04-21T12:34:54;27.30;83.30
44277;DHT22;29973;43.742;1.236;2023-04-21T12:37:20;27.20;86.50
44277;DHT22;29973;43.742;1.236;2023-04-21T12:39:46;28.40;87.80
44277;DHT22;29973;43.742;1.236;2023-04-21T12:42:12;27.60;79.70
44277;DHT22;29973;43.742;1.236;2023-04-21T12:44:38;27.30;82.50
44277;DHT22;29973;43.742;1.236;2023-04-21T12:47:05;27.30;82.60
44277;DHT22;29973;43.742;1.236;2023-04-21T12:49:30;27.60;83.40
44277;DHT22;29973;43.742;1.236;2023-04-21T12:51:56;26.20;85.10
44277;DHT22;29973;43.742;1.236;2023-04-21T12:54:22;27.30;80.90
44277;DHT22;29973;43.742;1.236;2023-04-21T12:56:47;28.00;83.10
44277;DHT22;29973;43.742;1.236;2023-04-21T12:59:13;27.00;82.80
44277;DHT22;29973;43.742;1.236;2023-04-21T13:01:40;27.40;78.40
44277;DHT22;29973;43.742;1.236;2023-04-21T13:04:09;27.90;80.00
44277;DHT22;29973;43.742;1.236;2023-04-21T13:06:34;29.10;77.00
44277;DHT22;29973;43.742;1.236;2023-04-21T13:09:02;28.30;76.70
44277;DHT22;29973;43.742;1.236;2023-04-21T13:11:28;27.80;74.90
44277;DHT22;29973;43.742;1.236;2023-04-21T13:13:54;27.90;79.70
44277;DHT22;29973;43.742;1.236;2023-04-21T13:16:20;27.90;78.60
44277;DHT22;29973;43.742;1.236;2023-04-21T13:18:46;28.00;77.70
44277;DHT22;29973;43.742;1.236;2023-04-21T13:21:12;29.20;78.90
44277;DHT22;29973;43.742;1.236;2023-04-21T13:23:38;29.10;74.30
44277;DHT22;29973;43.742;1.236;2023-04-21T13:26:04;27.90;75.70
44277;DHT22;29973;43.742;1.236;2023-04-21T13:28:29;29.60;75.70
44277;DHT22;29973;43.742;1.236;2023-04-21T13:30:56;27.90;74.70
44277;DHT22;29973;43.742;1.236;2023-04-21T13:33:22;27.70;75.60
44277;DHT22;29973;43.742;1.236;2023-04-21T13:35:48;27.80;77.10
44277;DHT22;29973;43.742;1.236;2023-04-21T13:38:14;27.80;76.50
44277;DHT22;29973;43.742;1.236;2023-04-21T13:40:39;28.40;74.30
44277;DHT22;29973;43.742;1.236;2023-04-21T13:43:05;28.80;74.60
44277;DHT22;29973;43.742;1.236;2023-04-21T13:45:31;28.00;75.50
44277;DHT22;29973;43.742;1.236;2023-04-21T13:47:57;28.30;76.00
44277;DHT22;29973;43.742;1.236;2023-04-21T13:50:23;27.80;75.00
44277;DHT22;29973;43.742;1.236;2023-04-21T13:52:49;28.80;73.60
44277;DHT22;29973;43.742;1.236;2023-04-21T13:55:14;28.60;72.40
44277;DHT22;29973;43.742;1.236;2023-04-21T13:57:40;28.20;72.80
44277;DHT22;29973;43.742;1.236;2023-04-21T14:00:07;28.80;73.20
44277;DHT22;29973;43.742;1.236;2023-04-21T14:02:37;28.80;71.50
44277;DHT22;29973;43.742;1.236;2023-04-21T14:05:03;30.20;73.40
44277;DHT22;29973;43.742;1.236;2023-04-21T14:07:30;29.00;71.70
44277;DHT22;29973;43.742;1.236;2023-04-21T14:09:55;29.90;72.20
44277;DHT22;29973;43.742;1.236;2023-04-21T14:12:22;28.20;71.60
44277;DHT22;29973;43.742;1.236;2023-04-21T14:14:50;29.30;71.40
44277;DHT22;29973;43.742;1.236;2023-04-21T14:17:16;28.00;69.00
44277;DHT22;29973;43.742;1.236;2023-04-21T14:19:42;27.90;74.20
44277;DHT22;29973;43.742;1.236;2023-04-21T14:22:07;28.50;70.40
44277;DHT22;29973;43.742;1.236;2023-04-21T14:24:33;29.40;72.00
44277;DHT22;29973;43.742;1.236;2023-04-21T14:26:59;28.90;73.60
44277;DHT22;29973;43.742;1.236;2023-04-21T14:29:25;28.90;73.40
44277;DHT22;29973;43.742;1.236;2023-04-21T14:31:51;27.40;74.10
44277;DHT22;29973;43.742;1.236;2023-04-21T14:34:18;28.90;73.40
44277;DHT22;29973;43.742;1.236;2023-04-21T14:36:44;29.00;72.90
44277;DHT22;29973;43.742;1.236;2023-04-21T14:39:14;28.60;73.20
44277;DHT22;29973;43.742;1.236;2023-04-21T14:41:40;29.40;74.40
44277;DHT22;29973;43.742;1.236;2023-04-21T14:44:05;29.00;71.70
44277;DHT22;29973;43.742;1.236;2023-04-21T14:46:31;27.60;75.70
44277;DHT22;29973;43.742;1.236;2023-04-21T14:48:57;28.50;74.70
44277;DHT22;29973;43.742;1.236;2023-04-21T14:51:22;28.40;74.60
44277;DHT22;29973;43.742;1.236;2023-04-21T14:53:48;29.60;75.10
44277;DHT22;29973;43.742;1.236;2023-04-21T14:56:14;27.60;74.80
44277;DHT22;29973;43.742;1.236;2023-04-21T14:58:40;27.20;78.10
44277;DHT22;29973;43.742;1.236;2023-04-21T15:01:06;26.70;76.40
44277;DHT22;29973;43.742;1.236;2023-04-21T15:03:32;26.80;77.10
44277;DHT22;29973;43.742;1.236;2023-04-21T15:05:57;27.00;77.70
44277;DHT22;29973;43.742;1.236;2023-04-21T15:08:23;27.30;76.90
44277;DHT22;29973;43.742;1.236;2023-04-21T15:10:49;27.90;76.70
44277;DHT22;29973;43.742;1.236;2023-04-21T15:13:15;27.00;76.00
44277;DHT22;29973;43.742;1.236;2023-04-21T15:15:40;28.10;74.70
44277;DHT22;29973;43.742;1.236;2023-04-21T15:18:06;28.70;73.80
44277;DHT22;29973;43.742;1.236;2023-04-21T15:20:33;27.50;75.70
44277;DHT22;29973;43.742;1.236;2023-04-21T15:22:58;27.30;76.30
44277;DHT22;29973;43.742;1.236;2023-04-21T15:25:24;27.00;76.20
44277;DHT22;29973;43.742;1.236;2023-04-21T15:27:50;27.20;76.90
44277;DHT22;29973;43.742;1.236;2023-04-21T15:30:16;26.00;76.30
44277;DHT22;29973;43.742;1.236;2023-04-21T15:32:41;27.60;76.30
44277;DHT22;29973;43.742;1.236;2023-04-21T15:35:07;29.20;73.30
44277;DHT22;29973;43.742;1.236;2023-04-21T15:37:33;28.20;73.60
44277;DHT22;29973;43.742;1.236;2023-04-21T15:39:59;26.90;74.70
44277;DHT22;29973;43.742;1.236;2023-04-21T15:42:25;27.70;74.20
44277;DHT22;29973;43.742;1.236;2023-04-21T15:44:51;27.30;74.20
44277;DHT22;29973;43.742;1.236;2023-04-21T15:47:18;28.20;72.10
44277;DHT22;29973;43.742;1.236;2023-04-21T15:49:43;27.60;71.80
44277;DHT22;29973;43.742;1.236;2023-04-21T15:52:09;27.60;73.10
44277;DHT22;29973;43.742;1.236;2023-04-21T15:54:35;27.10;73.50
44277;DHT22;29973;43.742;1.236;2023-04-21T15:57:01;27.60;74.00
44277;DHT22;29973;43.742;1.236;2023-04-21T15:59:27;26.80;71.70
44277;DHT22;29973;43.742;1.236;2023-04-21T16:01:53;26.50;72.30
44277;DHT22;29973;43.742;1.236;2023-04-21T16:04:21;26.90;74.10
44277;DHT22;29973;43.742;1.236;2023-04-21T16:06:47;27.40;74.90
44277;DHT22;29973;43.742;1.236;2023-04-21T16:09:12;28.00;71.80
44277;DHT22;29973;43.742;1.236;2023-04-21T16:11:38;28.10;71.40
44277;DHT22;29973;43.742;1.236;2023-04-21T16:14:04;27.70;71.50
44277;DHT22;29973;43.742;1.236;2023-04-21T16:16:30;26.80;74.50
44277;DHT22;29973;43.742;1.236;2023-04-21T16:18:56;26.00;74.90
44277;DHT22;29973;43.742;1.236;2023-04-21T16:21:21;25.40;78.00
44277;DHT22;29973;43.742;1.236;2023-04-21T16:23:47;25.40;75.90
44277;DHT22;29973;43.742;1.236;2023-04-21T16:26:13;25.20;75.20
44277;DHT22;29973;43.742;1.236;2023-04-21T16:28:39;25.30;77.00
44277;DHT22;29973;43.742;1.236;2023-04-21T16:31:05;26.00;75.00
44277;DHT22;29973;43.742;1.236;2023-04-21T16:33:31;26.20;74.10
44277;DHT22;29973;43.742;1.236;2023-04-21T16:35:56;25.60;74.20
44277;DHT22;29973;43.742;1.236;2023-04-21T16:38:22;24.00;78.80
44277;DHT22;29973;43.742;1.236;2023-04-21T16:40:48;24.40;80.20
44277;DHT22;29973;43.742;1.236;2023-04-21T16:43:14;25.20;78.10
44277;DHT22;29973;43.742;1.236;2023-04-21T16:45:40;24.80;78.90
44277;DHT22;29973;43.742;1.236;2023-04-21T16:48:06;25.20;79.10
44277;DHT22;29973;43.742;1.236;2023-04-21T16:50:33;26.00;76.60
44277;DHT22;29973;43.742;1.236;2023-04-21T16:52:58;24.90;78.70
44277;DHT22;29973;43.742;1.236;2023-04-21T16:55:24;24.50;80.00
44277;DHT22;29973;43.742;1.236;2023-04-21T16:57:50;24.50;81.10
44277;DHT22;29973;43.742;1.236;2023-04-21T17:00:16;24.90;80.70
44277;DHT22;29973;43.742;1.236;2023-04-21T17:02:42;24.40;80.80
44277;DHT22;29973;43.742;1.236;2023-04-21T17:05:08;24.40;81.40
44277;DHT22;29973;43.742;1.236;2023-04-21T17:07:35;24.80;81.50
44277;DHT22;29973;43.742;1.236;2023-04-21T17:10:04;22.90;84.90
44277;DHT22;29973;43.742;1.236;2023-04-21T17:12:30;22.20;88.70
44277;DHT22;29973;43.742;1.236;2023-04-21T17:14:56;22.10;88.90
44277;DHT22;29973;43.742;1.236;2023-04-21T17:17:21;22.20;90.50
44277;DHT22;29973;43.742;1.236;2023-04-21T17:19:47;22.60;90.10
44277;DHT22;29973;43.742;1.236;2023-04-21T17:22:13;22.40;90.00
44277;DHT22;29973;43.742;1.236;2023-04-21T17:24:39;21.30;91.70
44277;DHT22;29973;43.742;1.236;2023-04-21T17:27:04;21.70;91.20
44277;DHT22;29973;43.742;1.236;2023-04-21T17:29:31;21.90;91.30
44277;DHT22;29973;43.742;1.236;2023-04-21T17:31:56;21.10;92.40
44277;DHT22;29973;43.742;1.236;2023-04-21T17:34:22;20.20;94.00
44277;DHT22;29973;43.742;1.236;2023-04-21T17:36:48;19.10;96.00
44277;DHT22;29973;43.742;1.236;2023-04-21T17:39:14;19.00;96.90
44277;DHT22;29973;43.742;1.236;2023-04-21T17:41:40;18.80;97.60
44277;DHT22;29973;43.742;1.236;2023-04-21T17:44:06;18.80;98.10
44277;DHT22;29973;43.742;1.236;2023-04-21T17:46:32;18.50;98.80
44277;DHT22;29973;43.742;1.236;2023-04-21T17:48:58;18.20;99.20
44277;DHT22;29973;43.742;1.236;2023-04-21T17:51:24;18.20;99.60
44277;DHT22;29973;43.742;1.236;2023-04-21T17:53:50;18.10;99.90
44277;DHT22;29973;43.742;1.236;2023-04-21T17:56:16;18.00;99.90
44277;DHT22;29973;43.742;1.236;2023-04-21T17:58:43;17.90;99.90
44277;DHT22;29973;43.742;1.236;2023-04-21T18:01:08;17.80;99.90
44277;DHT22;29973;43.742;1.236;2023-04-21T18:03:34;17.80;99.90
44277;DHT22;29973;43.742;1.236;2023-04-21T18:06:01;17.60;99.90
44277;DHT22;29973;43.742;1.236;2023-04-21T18:08:27;17.40;99.90
44277;DHT22;29973;43.742;1.236;2023-04-21T18:10:53;17.30;99.90
44277;DHT22;29973;43.742;1.236;2023-04-21T18:13:19;17.20;99.90
44277;DHT22;29973;43.742;1.236;2023-04-21T18:15:45;17.10;99.90
44277;DHT22;29973;43.742;1.236;2023-04-21T18:18:11;17.00;99.90
44277;DHT22;29973;43.742;1.236;2023-04-21T18:20:37;16.90;99.90
44277;DHT22;29973;43.742;1.236;2023-04-21T18:23:02;16.80;99.90
44277;DHT22;29973;43.742;1.236;2023-04-21T18:25:28;16.70;99.90
44277;DHT22;29973;43.742;1.236;2023-04-21T18:27:54;16.60;99.90
44277;DHT22;29973;43.742;1.236;2023-04-21T18:30:19;16.40;99.90
44277;DHT22;29973;43.742;1.236;2023-04-21T18:32:45;16.40;99.90
44277;DHT22;29973;43.742;1.236;2023-04-21T18:35:11;16.30;99.90
44277;DHT22;29973;43.742;1.236;2023-04-21T18:37:37;16.20;99.90
44277;DHT22;29973;43.742;1.236;2023-04-21T18:40:02;16.10;99.90
44277;DHT22;29973;43.742;1.236;2023-04-21T18:42:30;16.00;99.90
44277;DHT22;29973;43.742;1.236;2023-04-21T18:44:55;15.90;99.90
44277;DHT22;29973;43.742;1.236;2023-04-21T18:47:21;15.70;99.90
44277;DHT22;29973;43.742;1.236;2023-04-21T18:49:47;15.50;99.90
44277;DHT22;29973;43.742;1.236;2023-04-21T18:52:13;15.50;99.90
44277;DHT22;29973;43.742;1.236;2023-04-21T18:54:39;15.40;99.90
44277;DHT22;29973;43.742;1.236;2023-04-21T18:57:05;15.40;99.90
44277;DHT22;29973;43.742;1.236;2023-04-21T18:59:33;15.40;99.90
44277;DHT22;29973;43.742;1.236;2023-04-21T19:02:00;15.40;99.90
44277;DHT22;29973;43.742;1.236;2023-04-21T19:04:30;15.30;99.90
44277;DHT22;29973;43.742;1.236;2023-04-21T19:06:57;15.40;99.90
44277;DHT22;29973;43.742;1.236;2023-04-21T19:09:23;15.30;99.90
44277;DHT22;29973;43.742;1.236;2023-04-21T19:11:49;15.20;99.90
44277;DHT22;29973;43.742;1.236;2023-04-21T19:14:15;15.20;99.90
44277;DHT22;29973;43.742;1.236;2023-04-21T19:16:40;15.30;99.90
44277;DHT22;29973;43.742;1.236;2023-04-21T19:19:06;15.20;99.90
44277;DHT22;29973;43.742;1.236;2023-04-21T19:21:32;15.00;99.90
44277;DHT22;29973;43.742;1.236;2023-04-21T19:23:58;15.10;99.90
44277;DHT22;29973;43.742;1.236;2023-04-21T19:26:25;15.10;99.90
44277;DHT22;29973;43.742;1.236;2023-04-21T19:28:53;15.10;99.90
44277;DHT22;29973;43.742;1.236;2023-04-21T19:31:18;15.10;99.90
44277;DHT22;29973;43.742;1.236;2023-04-21T19:33:46;15.10;99.90
44277;DHT22;29973;43.742;1.236;2023-04-21T19:36:12;15.00;99.90
44277;DHT22;29973;43.742;1.236;2023-04-21T19:38:38;14.80;99.90
44277;DHT22;29973;43.742;1.236;2023-04-21T19:41:04;14.90;99.90
44277;DHT22;29973;43.742;1.236;2023-04-21T19:43:30;14.90;99.90
44277;DHT22;29973;43.742;1.236;2023-04-21T19:45:55;14.90;99.90
44277;DHT22;29973;43.742;1.236;2023-04-21T19:48:23;15.00;99.90
44277;DHT22;29973;43.742;1.236;2023-04-21T19:50:49;14.90;99.90
44277;DHT22;29973;43.742;1.236;2023-04-21T19:53:14;14.90;99.90
44277;DHT22;29973;43.742;1.236;2023-04-21T19:55:41;14.80;99.90
44277;DHT22;29973;43.742;1.236;2023-04-21T19:58:07;14.80;99.90
44277;DHT22;29973;43.742;1.236;2023-04-21T20:00:32;14.70;99.90
44277;DHT22;29973;43.742;1.236;2023-04-21T20:02:58;14.80;99.90
44277;DHT22;29973;43.742;1.236;2023-04-21T20:05:24;14.80;99.90
44277;DHT22;29973;43.742;1.236;2023-04-21T20:07:50;14.80;99.90
44277;DHT22;29973;43.742;1.236;2023-04-21T20:10:15;14.70;99.90
44277;DHT22;29973;43.742;1.236;2023-04-21T20:12:41;14.70;99.90
44277;DHT22;29973;43.742;1.236;2023-04-21T20:15:07;14.60;99.90
44277;DHT22;29973;43.742;1.236;2023-04-21T20:17:33;14.60;99.90
44277;DHT22;29973;43.742;1.236;2023-04-21T20:19:59;14.60;99.90
44277;DHT22;29973;43.742;1.236;2023-04-21T20:22:25;14.60;99.90
44277;DHT22;29973;43.742;1.236;2023-04-21T20:24:51;14.50;99.90
44277;DHT22;29973;43.742;1.236;2023-04-21T20:27:18;14.40;99.90
44277;DHT22;29973;43.742;1.236;2023-04-21T20:29:44;14.50;99.90
44277;DHT22;29973;43.742;1.236;2023-04-21T20:32:11;14.50;99.90
44277;DHT22;29973;43.742;1.236;2023-04-21T20:34:36;14.40;99.90
44277;DHT22;29973;43.742;1.236;2023-04-21T20:37:02;14.50;99.90
44277;DHT22;29973;43.742;1.236;2023-04-21T20:39:30;14.50;99.90
44277;DHT22;29973;43.742;1.236;2023-04-21T20:41:55;14.50;99.90
44277;DHT22;29973;43.742;1.236;2023-04-21T20:44:24;14.40;99.90
44277;DHT22;29973;43.742;1.236;2023-04-21T20:46:58;14.50;99.90
44277;DHT22;29973;43.742;1.236;2023-04-21T20:49:24;14.50;99.90
44277;DHT22;29973;43.742;1.236;2023-04-21T20:51:58;14.40;99.90
44277;DHT22;29973;43.742;1.236;2023-04-21T20:54:24;14.40;99.90
44277;DHT22;29973;43.742;1.236;2023-04-21T20:56:50;14.40;99.90
44277;DHT22;29973;43.742;1.236;2023-04-21T20:59:16;14.40;99.90
44277;DHT22;29973;43.742;1.236;2023-04-21T21:01:42;14.40;99.90
44277;DHT22;29973;43.742;1.236;2023-04-21T21:04:09;14.40;99.90
44277;DHT22;29973;43.742;1.236;2023-04-21T21:06:36;14.40;99.90
44277;DHT22;29973;43.742;1.236;2023-04-21T21:09:02;14.40;99.90
44277;DHT22;29973;43.742;1.236;2023-04-21T21:11:28;14.40;99.90
44277;DHT22;29973;43.742;1.236;2023-04-21T21:13:53;14.40;99.90
44277;DHT22;29973;43.742;1.236;2023-04-21T21:16:19;14.40;99.90
44277;DHT22;29973;43.742;1.236;2023-04-21T21:18:45;14.50;99.90
44277;DHT22;29973;43.742;1.236;2023-04-21T21:21:11;14.50;99.90
44277;DHT22;29973;43.742;1.236;2023-04-21T21:23:37;14.40;99.90
44277;DHT22;29973;43.742;1.236;2023-04-21T21:26:02;14.40;99.90
44277;DHT22;29973;43.742;1.236;2023-04-21T21:28:28;14.40;99.90
44277;DHT22;29973;43.742;1.236;2023-04-21T21:30:55;14.40;99.90
44277;DHT22;29973;43.742;1.236;2023-04-21T21:33:21;14.30;99.90
44277;DHT22;29973;43.742;1.236;2023-04-21T21:35:47;14.40;99.90
44277;DHT22;29973;43.742;1.236;2023-04-21T21:38:13;14.30;99.90
44277;DHT22;29973;43.742;1.236;2023-04-21T21:40:38;14.40;99.90
44277;DHT22;29973;43.742;1.236;2023-04-21T21:43:04;14.30;99.90
44277;DHT22;29973;43.742;1.236;2023-04-21T21:45:30;14.30;99.90
44277;DHT22;29973;43.742;1.236;2023-04-21T21:47:56;14.40;99.90
44277;DHT22;29973;43.742;1.236;2023-04-21T21:50:22;14.40;99.90
44277;DHT22;29973;43.742;1.236;2023-04-21T21:52:48;14.40;99.90
44277;DHT22;29973;43.742;1.236;2023-04-21T21:55:14;14.40;99.90
44277;DHT22;29973;43.742;1.236;2023-04-21T21:57:40;14.40;99.90
44277;DHT22;29973;43.742;1.236;2023-04-21T22:00:07;14.50;99.90
44277;DHT22;29973;43.742;1.236;2023-04-21T22:02:34;14.40;99.90
44277;DHT22;29973;43.742;1.236;2023-04-21T22:05:00;14.50;99.90
44277;DHT22;29973;43.742;1.236;2023-04-21T22:07:26;14.40;99.90
44277;DHT22;29973;43.742;1.236;2023-04-21T22:09:51;14.50;99.90
44277;DHT22;29973;43.742;1.236;2023-04-21T22:12:17;14.40;99.90
44277;DHT22;29973;43.742;1.236;2023-04-21T22:14:43;14.40;99.90
44277;DHT22;29973;43.742;1.236;2023-04-21T22:17:11;14.50;99.90
44277;DHT22;29973;43.742;1.236;2023-04-21T22:19:36;14.50;99.90
44277;DHT22;29973;43.742;1.236;2023-04-21T22:22:02;14.40;99.90
44277;DHT22;29973;43.742;1.236;2023-04-21T22:24:28;14.30;99.90
44277;DHT22;29973;43.742;1.236;2023-04-21T22:26:54;14.20;99.90
44277;DHT22;29973;43.742;1.236;2023-04-21T22:29:20;14.40;99.90
44277;DHT22;29973;43.742;1.236;2023-04-21T22:31:46;14.60;99.90
44277;DHT22;29973;43.742;1.236;2023-04-21T22:34:12;14.70;99.90